Time;durP1;ratioP1;P1;durP2;ratioP2;P2;SDS_P1;SDS_P2;PMS_P1;PMS_P2;Temp;Humidity;BMP_temperature;BMP_pressure;BME280_temperature;BME280_humidity;BME280_pressure;Samples;Min_cycle;Max_cycle;Signal;HPM_P1;HPM_P2
2021/08/10 00:01:26;;;;;;;3.30;1.30;;;16.60;75.00;;;;;;4976260;28;95813;-49
2021/08/10 00:03:58;;;;;;;1.40;1.30;;;16.60;75.00;;;;;;4977482;28;94987;-51
2021/08/10 00:06:32;;;;;;;2.05;1.27;;;16.60;75.00;;;;;;4977837;28;95135;-49
2021/08/10 00:09:06;;;;;;;1.23;1.13;;;16.60;75.10;;;;;;4959587;28;96488;-50
2021/08/10 00:11:39;;;;;;;1.73;1.17;;;16.60;75.10;;;;;;4976626;28;95508;-49
2021/08/10 00:14:12;;;;;;;2.38;1.52;;;16.60;75.00;;;;;;4977071;28;94991;-50
2021/08/10 00:16:45;;;;;;;1.23;1.13;;;16.50;75.00;;;;;;4976032;28;95176;-48
2021/08/10 00:19:17;;;;;;;1.08;1.05;;;16.40;75.40;;;;;;4969885;28;96536;-51
2021/08/10 00:21:49;;;;;;;1.48;1.38;;;16.30;75.70;;;;;;4975514;28;95246;-49
2021/08/10 00:24:21;;;;;;;2.50;1.42;;;16.20;75.80;;;;;;4977014;28;94956;-48
2021/08/10 00:26:52;;;;;;;1.08;1.05;;;16.20;75.90;;;;;;4977453;28;95236;-50
2021/08/10 00:29:25;;;;;;;1.25;1.15;;;16.20;75.90;;;;;;4960087;28;95093;-49
2021/08/10 00:31:57;;;;;;;1.40;1.30;;;16.20;75.90;;;;;;4978097;28;95877;-50
2021/08/10 00:34:30;;;;;;;1.45;1.33;;;16.20;75.90;;;;;;4979920;28;94967;-50
2021/08/10 00:37:09;;;;;;;1.60;1.40;;;16.20;75.80;;;;;;4979582;28;95305;-48
2021/08/10 00:39:41;;;;;;;1.05;0.98;;;16.20;75.90;;;;;;4962192;28;94870;-48
2021/08/10 00:42:13;;;;;;;1.45;1.35;;;16.30;75.80;;;;;;4979689;28;95789;-48
2021/08/10 00:44:53;;;;;;;1.70;1.13;;;16.30;75.80;;;;;;4980243;28;95079;-49
2021/08/10 00:47:27;;;;;;;1.30;1.10;;;16.30;75.70;;;;;;4961318;28;95532;-49
2021/08/10 00:50:02;;;;;;;1.30;1.20;;;16.30;75.70;;;;;;4962479;28;97320;-49
2021/08/10 00:52:42;;;;;;;1.25;1.00;;;16.40;75.80;;;;;;4980082;28;95246;-49
2021/08/10 00:55:21;;;;;;;1.30;1.20;;;16.30;75.90;;;;;;4980725;28;94927;-50
2021/08/10 00:57:55;;;;;;;2.05;1.02;;;16.30;76.10;;;;;;4980589;28;95045;-48
2021/08/10 01:00:29;;;;;;;0.80;0.80;;;16.30;76.10;;;;;;4977182;28;96460;-49
2021/08/10 01:03:01;;;;;;;1.42;1.33;;;16.30;76.00;;;;;;4980162;28;95115;-49
2021/08/10 01:05:36;;;;;;;1.00;1.00;;;16.40;76.00;;;;;;4962022;28;95393;-48
2021/08/10 01:08:46;;;;;;;0.88;0.88;;;16.40;75.80;;;;;;4979867;28;95208;-48
2021/08/10 01:11:38;;;;;;;0.77;0.77;;;16.50;75.70;;;;;;4979377;28;96529;-49
2021/08/10 01:14:34;;;;;;;1.08;0.98;;;16.50;75.80;;;;;;4978776;28;96015;-52
2021/08/10 01:17:18;;;;;;;0.80;0.80;;;16.60;76.10;;;;;;4978503;28;95045;-49
2021/08/10 01:20:33;;;;;;;1.15;1.10;;;16.70;75.70;;;;;;4972551;28;95530;-49
2021/08/10 01:23:07;;;;;;;1.30;0.98;;;16.70;75.80;;;;;;4968998;28;96525;-50
2021/08/10 01:26:13;;;;;;;0.90;0.90;;;16.70;75.90;;;;;;4945154;28;96041;-49
2021/08/10 01:29:01;;;;;;;1.15;1.00;;;16.80;76.00;;;;;;4979015;28;95006;-51
2021/08/10 01:31:37;;;;;;;1.02;0.80;;;16.80;75.80;;;;;;4978760;28;95123;-51
2021/08/10 01:34:17;;;;;;;1.02;0.80;;;16.80;75.70;;;;;;4978811;28;96489;-49
2021/08/10 01:36:55;;;;;;;0.90;0.70;;;16.80;75.50;;;;;;4961179;28;95785;-49
2021/08/10 01:39:30;;;;;;;0.98;0.88;;;16.80;75.40;;;;;;4978819;28;94979;-49
2021/08/10 01:42:05;;;;;;;0.80;0.80;;;16.90;75.50;;;;;;4960677;28;95345;-52
2021/08/10 01:44:37;;;;;;;1.02;0.93;;;16.90;75.50;;;;;;4978848;28;96115;-51
2021/08/10 01:47:13;;;;;;;0.93;0.93;;;16.90;75.30;;;;;;4977692;28;95654;-51
2021/08/10 01:49:46;;;;;;;0.75;0.75;;;17.00;75.30;;;;;;4962470;28;95043;-50
2021/08/10 01:52:23;;;;;;;0.82;0.82;;;16.90;75.20;;;;;;4980399;28;95026;-50
2021/08/10 01:55:05;;;;;;;0.73;0.73;;;17.00;75.00;;;;;;4973592;28;97094;-49
2021/08/10 01:57:39;;;;;;;6.63;1.10;;;17.00;74.90;;;;;;4942050;28;96282;-50
2021/08/10 02:00:13;;;;;;;4.78;1.10;;;17.10;74.90;;;;;;4943447;28;98040;-54
2021/08/10 02:02:54;;;;;;;3.08;0.90;;;17.20;74.50;;;;;;4928361;28;95846;-46
2021/08/10 02:05:43;;;;;;;2.72;0.90;;;17.30;74.50;;;;;;4938122;28;99551;-49
2021/08/10 02:08:21;;;;;;;1.73;1.02;;;17.40;74.50;;;;;;4937927;28;97672;-50
2021/08/10 02:10:55;;;;;;;2.53;0.80;;;17.60;74.60;;;;;;4931201;28;95952;-45
2021/08/10 02:13:30;;;;;;;2.55;0.90;;;17.80;74.40;;;;;;4941994;28;95908;-54
2021/08/10 02:16:04;;;;;;;1.85;0.75;;;18.00;74.10;;;;;;4958714;28;98185;-49
2021/08/10 02:18:37;;;;;;;3.10;1.00;;;18.30;73.60;;;;;;4934539;28;96260;-62
2021/08/10 02:21:26;;;;;;;0.50;0.50;;;18.50;72.90;;;;;;4933504;28;95923;-58
2021/08/10 02:24:07;;;;;;;8.25;1.02;;;18.70;72.80;;;;;;4940089;28;96831;-58
2021/08/10 02:26:50;;;;;;;1.27;0.63;;;18.90;72.50;;;;;;4945204;28;96800;-57
2021/08/10 02:29:22;;;;;;;0.65;0.65;;;19.10;71.80;;;;;;4942968;28;98149;-56
2021/08/10 02:31:55;;;;;;;0.60;0.60;;;19.30;71.60;;;;;;4938354;28;95717;-53
2021/08/10 02:34:34;;;;;;;0.73;0.73;;;19.40;71.30;;;;;;4940988;28;97050;-51
2021/08/10 02:37:07;;;;;;;1.25;0.90;;;19.60;71.00;;;;;;4963308;28;96119;-54
2021/08/10 02:39:38;;;;;;;1.52;0.63;;;19.80;70.80;;;;;;4936099;28;97438;-53
2021/08/10 02:42:11;;;;;;;0.75;0.75;;;20.00;70.70;;;;;;4925050;28;95869;-57
2021/08/10 02:44:45;;;;;;;0.80;0.80;;;20.10;70.50;;;;;;4943062;28;96309;-56
2021/08/10 02:47:19;;;;;;;0.50;0.50;;;20.30;70.20;;;;;;4927628;28;97578;-57
2021/08/10 02:49:51;;;;;;;0.60;0.60;;;20.40;69.80;;;;;;4931547;28;97673;-52
2021/08/10 02:52:23;;;;;;;0.80;0.70;;;20.60;69.70;;;;;;4943751;28;95581;-52
2021/08/10 02:54:55;;;;;;;1.27;0.90;;;20.70;69.50;;;;;;4936497;28;96670;-53
2021/08/10 02:57:37;;;;;;;0.80;0.80;;;20.90;69.00;;;;;;4939134;28;96721;-55
2021/08/10 03:00:14;;;;;;;0.82;0.80;;;21.00;68.80;;;;;;4944491;28;96312;-57
2021/08/10 03:02:51;;;;;;;1.58;1.02;;;21.10;68.40;;;;;;4941462;28;96393;-62
2021/08/10 03:05:29;;;;;;;0.70;0.70;;;21.10;62.90;;;;;;4963072;28;97390;-57
2021/08/10 03:08:06;;;;;;;0.63;0.60;;;21.30;66.40;;;;;;4943333;28;96233;-56
2021/08/10 03:10:42;;;;;;;1.00;0.90;;;21.40;66.10;;;;;;4939390;28;96682;-56
2021/08/10 03:13:13;;;;;;;0.90;0.80;;;21.50;66.10;;;;;;4962547;28;95739;-59
2021/08/10 03:15:45;;;;;;;0.75;0.70;;;21.70;65.90;;;;;;4939395;28;97032;-60
2021/08/10 03:18:17;;;;;;;0.82;0.82;;;21.80;65.80;;;;;;4937475;28;96080;-58
2021/08/10 03:20:48;;;;;;;1.05;1.00;;;21.90;64.30;;;;;;4926887;28;95857;-55
2021/08/10 03:23:20;;;;;;;0.98;0.80;;;21.90;64.90;;;;;;4962653;28;96817;-53
2021/08/10 03:25:52;;;;;;;1.98;1.15;;;22.10;64.80;;;;;;4962596;28;95807;-52
2021/08/10 03:28:29;;;;;;;0.80;0.80;;;22.20;64.80;;;;;;4961374;28;96505;-46
2021/08/10 03:31:01;;;;;;;1.05;0.95;;;22.30;64.80;;;;;;4937606;28;97821;-48
2021/08/10 03:33:33;;;;;;;2.90;0.80;;;22.00;55.90;;;;;;4961446;28;95952;-48
2021/08/10 03:36:04;;;;;;;;;;;21.70;56.90;;;;;;4942886;28;95655;-53
2021/08/10 03:38:36;;;;;;;1.15;1.10;;;21.40;56.20;;;;;;4944595;28;96211;-48
2021/08/10 03:41:11;;;;;;;1.58;0.80;;;21.30;56.70;;;;;;4923958;28;96008;-48
2021/08/10 03:43:45;;;;;;;0.80;0.80;;;21.10;57.10;;;;;;4939487;28;96082;-47
2021/08/10 03:46:16;;;;;;;1.00;0.80;;;21.00;56.30;;;;;;4938284;28;95696;-47
2021/08/10 03:48:49;;;;;;;2.87;1.20;;;20.80;56.10;;;;;;5002123;23;96697;-47
2021/08/10 03:51:22;;;;;;;2.90;1.00;;;20.70;57.70;;;;;;4943499;28;97692;-51
2021/08/10 03:53:54;;;;;;;0.77;0.60;;;20.60;56.40;;;;;;4945067;28;95893;-48
2021/08/10 03:56:27;;;;;;;1.58;0.82;;;20.60;56.70;;;;;;4940941;28;96531;-52
2021/08/10 03:59:02;;;;;;;0.80;0.80;;;20.50;55.90;;;;;;4925814;28;96204;-47
2021/08/10 04:01:39;;;;;;;0.85;0.80;;;20.40;56.70;;;;;;4937781;28;95975;-46
2021/08/10 04:04:13;;;;;;;0.93;0.88;;;20.40;56.80;;;;;;4962634;28;95815;-49
2021/08/10 04:06:45;;;;;;;1.17;0.70;;;20.30;56.70;;;;;;4946936;28;96000;-51
2021/08/10 04:09:21;;;;;;;1.02;0.70;;;20.30;56.80;;;;;;4965567;28;96116;-50
2021/08/10 04:11:55;;;;;;;0.70;0.70;;;20.30;57.00;;;;;;4963519;28;96733;-49
2021/08/10 04:14:25;;;;;;;;;;;20.20;57.20;;;;;;4966379;28;96586;-49
2021/08/10 04:17:05;;;;;;;0.60;0.60;;;20.20;56.90;;;;;;4962989;28;96938;-50
2021/08/10 04:19:52;;;;;;;0.63;0.63;;;20.10;56.50;;;;;;4935381;28;96947;-51
2021/08/10 04:22:24;;;;;;;0.40;0.40;;;20.10;56.30;;;;;;4944277;28;97674;-48
2021/08/10 04:24:54;;;;;;;1.85;0.70;;;20.10;56.50;;;;;;4947498;28;97119;-48
2021/08/10 04:27:24;;;;;;;1.25;0.75;;;20.00;56.30;;;;;;4946541;28;96026;-48
2021/08/10 04:29:59;;;;;;;0.90;0.60;;;20.10;55.90;;;;;;4945768;28;97015;-48
2021/08/10 04:32:32;;;;;;;0.50;0.50;;;20.00;56.40;;;;;;4931880;28;95879;-51
2021/08/10 04:35:05;;;;;;;1.30;0.60;;;20.00;56.30;;;;;;4945534;28;95481;-47
2021/08/10 04:37:38;;;;;;;0.68;0.50;;;20.00;56.50;;;;;;4947628;28;95584;-46
2021/08/10 04:40:10;;;;;;;0.50;0.50;;;19.90;56.70;;;;;;4943959;28;96232;-46
2021/08/10 04:43:18;;;;;;;0.82;0.82;;;20.00;56.70;;;;;;4963155;28;97339;-47
2021/08/10 04:45:49;;;;;;;0.50;0.50;;;19.90;57.00;;;;;;4960466;28;96591;-51
2021/08/10 04:48:20;;;;;;;1.27;0.52;;;20.00;57.10;;;;;;4965554;28;95823;-48
2021/08/10 04:50:51;;;;;;;0.60;0.50;;;20.00;56.80;;;;;;4960399;28;96947;-49
2021/08/10 04:53:23;;;;;;;0.80;0.80;;;19.90;56.70;;;;;;4963470;28;96019;-49
2021/08/10 04:55:56;;;;;;;0.70;0.68;;;19.90;56.80;;;;;;4946597;28;95462;-49
2021/08/10 04:58:29;;;;;;;0.55;0.55;;;19.90;56.40;;;;;;4946330;28;96586;-49
2021/08/10 05:01:01;;;;;;;1.80;0.70;;;19.90;56.80;;;;;;4961318;28;96029;-54
2021/08/10 05:03:35;;;;;;;0.90;0.63;;;19.90;56.70;;;;;;4956930;28;96564;-52
2021/08/10 05:06:06;;;;;;;0.73;0.45;;;19.90;56.30;;;;;;4946738;28;96031;-50
2021/08/10 05:08:39;;;;;;;0.52;0.52;;;19.90;56.20;;;;;;4945530;28;95506;-50
2021/08/10 05:11:13;;;;;;;0.60;0.60;;;19.90;56.50;;;;;;4965601;28;98868;-50
2021/08/10 05:13:44;;;;;;;0.68;0.65;;;19.90;56.80;;;;;;4946111;28;95707;-49
2021/08/10 05:16:16;;;;;;;0.65;0.57;;;19.90;56.60;;;;;;4955351;28;96777;-47
2021/08/10 05:18:49;;;;;;;0.95;0.65;;;19.90;56.50;;;;;;4923655;28;96664;-50
2021/08/10 05:21:21;;;;;;;0.95;0.57;;;19.90;56.80;;;;;;4948918;28;96787;-48
2021/08/10 05:23:56;;;;;;;0.90;0.55;;;19.90;56.60;;;;;;4951263;28;96113;-46
2021/08/10 05:26:27;;;;;;;1.83;0.80;;;19.90;56.30;;;;;;4951215;28;96013;-47
2021/08/10 05:28:59;;;;;;;0.95;0.50;;;19.90;56.40;;;;;;4951866;28;95688;-53
2021/08/10 05:31:32;;;;;;;10.50;1.00;;;19.70;53.50;;;;;;4926882;28;96339;-52
2021/08/10 05:34:04;;;;;;;0.75;0.40;;;19.50;48.60;;;;;;4945705;28;97371;-55
2021/08/10 05:36:36;;;;;;;3.35;0.65;;;19.10;48.30;;;;;;4944444;28;97167;-51
2021/08/10 05:39:07;;;;;;;1.70;0.70;;;18.50;47.80;;;;;;4945388;28;95799;-50
2021/08/10 05:41:39;;;;;;;0.75;0.75;;;18.50;48.50;;;;;;4954231;28;96879;-49
2021/08/10 05:44:09;;;;;;;0.50;0.50;;;18.50;50.00;;;;;;4943286;28;97402;-50
2021/08/10 05:46:40;;;;;;;0.80;0.60;;;18.30;50.00;;;;;;4932771;28;96771;-50
2021/08/10 05:49:15;;;;;;;0.93;0.55;;;18.40;50.50;;;;;;4923020;28;96425;-51
2021/08/10 05:51:45;;;;;;;1.75;0.82;;;18.40;50.50;;;;;;4940693;28;99387;-53
2021/08/10 05:54:17;;;;;;;;;;;18.40;51.20;;;;;;4925396;28;97655;-50
2021/08/10 05:56:52;;;;;;;1.83;0.68;;;18.20;48.90;;;;;;4920695;28;95732;-52
2021/08/10 05:59:26;;;;;;;1.08;0.82;;;18.10;49.40;;;;;;4936551;28;96671;-50
2021/08/10 06:02:00;;;;;;;1.23;0.57;;;18.00;49.60;;;;;;4948680;28;96112;-50
2021/08/10 06:04:31;;;;;;;6.88;0.90;;;17.70;50.40;;;;;;4960088;28;95853;-50
2021/08/10 06:07:04;;;;;;;4.40;0.82;;;17.70;50.50;;;;;;4966845;28;95691;-51
2021/08/10 06:09:42;;;;;;;1.08;0.68;;;17.60;51.10;;;;;;4964727;28;95788;-51
2021/08/10 06:12:15;;;;;;;0.47;0.47;;;17.60;51.10;;;;;;4966510;28;96025;-50
2021/08/10 06:14:48;;;;;;;0.57;0.52;;;17.60;52.20;;;;;;4944037;28;97665;-49
2021/08/10 06:17:19;;;;;;;1.88;0.63;;;17.50;51.60;;;;;;4962234;28;96151;-50
2021/08/10 06:19:51;;;;;;;1.17;0.63;;;17.40;51.70;;;;;;4949252;28;96036;-52
2021/08/10 06:22:22;;;;;;;0.63;0.60;;;17.40;52.60;;;;;;4962505;28;96825;-55
2021/08/10 06:24:52;;;;;;;0.75;0.75;;;17.20;52.20;;;;;;4943925;28;96308;-51
2021/08/10 06:27:25;;;;;;;4.70;3.13;;;17.30;53.10;;;;;;4945851;28;95746;-55
2021/08/10 06:29:57;;;;;;;6.63;4.40;;;17.10;52.70;;;;;;4945024;28;96700;-54
2021/08/10 06:32:29;;;;;;;3.47;2.97;;;16.90;53.00;;;;;;4960641;28;96502;-55
2021/08/10 06:35:00;;;;;;;;;;;16.90;53.40;;;;;;4944614;28;96297;-52
2021/08/10 06:37:33;;;;;;;2.38;1.52;;;17.00;53.90;;;;;;4965383;28;95761;-50
2021/08/10 06:40:04;;;;;;;1.95;1.30;;;16.90;53.10;;;;;;4944818;28;96951;-53
2021/08/10 06:42:35;;;;;;;4.05;3.05;;;17.00;54.20;;;;;;4964017;28;97706;-53
2021/08/10 06:45:09;;;;;;;3.03;2.03;;;16.90;53.20;;;;;;4945440;28;98141;-55
2021/08/10 06:47:40;;;;;;;2.20;1.92;;;16.60;53.40;;;;;;4944350;28;96063;-55
2021/08/10 06:50:13;;;;;;;5.50;4.00;;;16.40;54.00;;;;;;4944902;28;96089;-54
2021/08/10 06:52:47;;;;;;;6.38;5.30;;;16.30;54.30;;;;;;4947506;28;96615;-55
2021/08/10 06:55:21;;;;;;;7.05;6.35;;;16.20;54.50;;;;;;4969832;28;95746;-55
2021/08/10 06:57:54;;;;;;;6.95;5.55;;;16.40;54.90;;;;;;4945818;28;96758;-51
2021/08/10 07:00:27;;;;;;;9.43;8.25;;;16.40;55.00;;;;;;4943159;28;96464;-53
2021/08/10 07:02:59;;;;;;;15.23;13.23;;;16.50;55.90;;;;;;4942698;28;98680;-50
2021/08/10 07:05:30;;;;;;;5.47;4.85;;;16.40;54.70;;;;;;4942736;28;97767;-50
2021/08/10 07:08:03;;;;;;;7.22;5.55;;;16.50;56.20;;;;;;4945207;28;96642;-51
2021/08/10 07:10:39;;;;;;;7.68;5.13;;;16.80;57.00;;;;;;4929739;28;96129;-48
2021/08/10 07:13:12;;;;;;;5.00;4.53;;;17.00;57.40;;;;;;4929297;28;96179;-49
2021/08/10 07:15:42;;;;;;;4.67;4.03;;;17.30;57.90;;;;;;4957507;28;96672;-53
2021/08/10 07:18:17;;;;;;;5.20;4.35;;;17.40;58.20;;;;;;4944077;28;96077;-47
2021/08/10 07:20:49;;;;;;;5.40;3.42;;;17.60;58.70;;;;;;4945229;28;97927;-49
2021/08/10 07:23:22;;;;;;;3.15;2.85;;;17.70;59.20;;;;;;4965062;28;98513;-50
2021/08/10 07:25:53;;;;;;;3.22;2.92;;;17.80;59.60;;;;;;4944025;28;96050;-47
2021/08/10 07:28:27;;;;;;;3.17;2.88;;;17.90;59.40;;;;;;4945328;28;96718;-52
2021/08/10 07:30:57;;;;;;;3.60;2.95;;;17.90;59.50;;;;;;4963718;28;98450;-50
2021/08/10 07:33:29;;;;;;;3.22;2.83;;;18.00;59.90;;;;;;4962568;28;96096;-49
2021/08/10 07:36:00;;;;;;;2.70;2.30;;;18.00;59.90;;;;;;4944461;28;97924;-51
2021/08/10 07:38:32;;;;;;;2.58;2.38;;;18.10;60.20;;;;;;4943388;28;96500;-51
2021/08/10 07:41:07;;;;;;;2.78;2.53;;;18.10;60.30;;;;;;4947255;28;96515;-55
2021/08/10 07:43:38;;;;;;;3.22;2.47;;;18.20;60.40;;;;;;4949016;28;96431;-47
2021/08/10 07:46:09;;;;;;;;;;;18.20;60.50;;;;;;4945472;28;96220;-48
2021/08/10 07:48:46;;;;;;;2.20;1.95;;;18.20;60.50;;;;;;4949742;28;95943;-50
2021/08/10 07:51:20;;;;;;;2.55;2.10;;;18.20;60.70;;;;;;4952186;28;96142;-52
2021/08/10 07:53:53;;;;;;;2.28;2.08;;;18.30;61.10;;;;;;4948274;28;97179;-51
2021/08/10 07:56:24;;;;;;;2.28;2.03;;;18.30;61.10;;;;;;4965710;28;95804;-50
2021/08/10 08:01:16;;;;;;;3.33;2.00;;;18.30;60.80;;;;;;4996152;27;98607;-50
2021/08/10 08:03:48;;;;;;;2.35;2.15;;;18.30;61.50;;;;;;4989210;28;95785;-53
2021/08/10 08:06:19;;;;;;;2.00;1.80;;;18.30;62.00;;;;;;4990959;28;96088;-54
2021/08/10 08:08:50;;;;;;;2.70;1.77;;;18.20;62.40;;;;;;4993315;28;96256;-56
2021/08/10 08:11:24;;;;;;;2.03;1.63;;;18.20;62.50;;;;;;4995113;28;96327;-51
2021/08/10 08:13:55;;;;;;;2.05;1.80;;;18.10;62.80;;;;;;4980386;28;95924;-54
2021/08/10 08:16:27;;;;;;;1.73;1.40;;;18.10;62.90;;;;;;4985569;28;95907;-54
2021/08/10 08:18:59;;;;;;;3.85;1.70;;;18.20;63.20;;;;;;5016158;27;98023;-54
2021/08/10 08:21:32;;;;;;;1.70;1.20;;;18.20;63.60;;;;;;5001887;28;96118;-52
2021/08/10 08:24:05;;;;;;;2.10;1.60;;;18.20;63.50;;;;;;5030225;27;95334;-52
2021/08/10 08:26:35;;;;;;;1.50;1.40;;;18.20;63.80;;;;;;5002778;28;96063;-52
2021/08/10 08:29:07;;;;;;;1.60;1.40;;;18.20;64.10;;;;;;5000863;28;95836;-51
2021/08/10 08:31:40;;;;;;;2.20;1.63;;;18.20;64.30;;;;;;4981361;28;96012;-51
2021/08/10 08:34:10;;;;;;;3.03;1.70;;;18.20;64.40;;;;;;4986044;28;95245;-54
2021/08/10 08:36:43;;;;;;;1.50;1.40;;;18.20;64.70;;;;;;4993382;28;95716;-52
2021/08/10 08:39:13;;;;;;;2.53;1.40;;;18.20;64.80;;;;;;4995577;28;96796;-50
2021/08/10 08:41:46;;;;;;;2.03;1.27;;;18.20;64.80;;;;;;5001295;28;96114;-53
2021/08/10 08:44:18;;;;;;;1.75;1.30;;;18.20;65.00;;;;;;5029312;27;95586;-51
2021/08/10 08:46:50;;;;;;;1.42;1.33;;;18.30;65.20;;;;;;5004232;27;97264;-52
2021/08/10 08:49:23;;;;;;;1.45;1.35;;;18.20;65.20;;;;;;4988846;28;98234;-54
2021/08/10 08:51:57;;;;;;;1.45;1.35;;;18.20;65.20;;;;;;4987435;28;95843;-57
2021/08/10 08:54:31;;;;;;;1.55;1.35;;;18.20;65.30;;;;;;5027581;27;95329;-53
2021/08/10 08:57:02;;;;;;;1.25;1.13;;;18.20;65.50;;;;;;4997680;28;97233;-53
2021/08/10 08:59:34;;;;;;;1.60;1.38;;;18.20;65.50;;;;;;4992585;28;96266;-54
2021/08/10 09:02:10;;;;;;;1.33;1.00;;;18.20;65.60;;;;;;4991995;28;97389;-53
2021/08/10 09:04:46;;;;;;;1.40;1.20;;;18.20;65.80;;;;;;4990978;28;95772;-51
2021/08/10 09:07:20;;;;;;;2.92;1.15;;;18.20;65.80;;;;;;4988104;28;95842;-54
2021/08/10 09:10:07;;;;;;;2.10;1.40;;;18.20;66.10;;;;;;4990970;28;96076;-52
2021/08/10 09:12:54;;;;;;;1.20;1.10;;;18.20;66.10;;;;;;4971783;28;97386;-53
2021/08/10 09:15:32;;;;;;;1.38;1.27;;;18.20;66.30;;;;;;4973573;28;95339;-54
2021/08/10 09:18:10;;;;;;;1.50;1.38;;;18.20;66.40;;;;;;4977992;28;95672;-54
2021/08/10 09:21:04;;;;;;;1.55;1.02;;;18.20;66.60;;;;;;5014043;27;95940;-54
2021/08/10 09:23:48;;;;;;;1.27;0.85;;;18.20;66.60;;;;;;4974935;28;96080;-54
2021/08/10 09:26:32;;;;;;;1.20;1.10;;;18.20;66.50;;;;;;4969996;28;96548;-54
2021/08/10 09:29:05;;;;;;;0.93;0.93;;;18.20;66.50;;;;;;4988938;28;95908;-53
2021/08/10 09:31:44;;;;;;;1.30;1.15;;;18.20;66.60;;;;;;4985165;28;97627;-53
2021/08/10 09:34:26;;;;;;;3.00;1.00;;;18.30;66.70;;;;;;4993228;28;96012;-53
2021/08/10 09:37:03;;;;;;;1.58;1.13;;;18.30;66.70;;;;;;4988524;28;95738;-55
2021/08/10 09:39:37;;;;;;;1.38;1.27;;;18.30;66.80;;;;;;4981264;28;98495;-55
2021/08/10 09:42:14;;;;;;;0.65;0.65;;;18.20;66.70;;;;;;4975547;28;98419;-54
2021/08/10 09:45:05;;;;;;;1.20;1.10;;;18.20;66.80;;;;;;4975700;28;96095;-54
2021/08/10 09:47:40;;;;;;;2.00;0.77;;;18.20;66.70;;;;;;4983564;28;95874;-56
2021/08/10 09:50:18;;;;;;;2.15;0.90;;;18.10;66.90;;;;;;4987295;28;95989;-55
2021/08/10 09:52:51;;;;;;;4.30;1.25;;;18.10;67.30;;;;;;4990165;28;96126;-55
2021/08/10 09:55:23;;;;;;;3.08;1.05;;;18.00;67.40;;;;;;4977177;28;98118;-53
2021/08/10 09:58:04;;;;;;;8.85;1.80;;;18.00;67.80;;;;;;4969734;28;95494;-56
2021/08/10 10:00:44;;;;;;;7.68;1.65;;;17.90;68.30;;;;;;4974193;28;96028;-52
2021/08/10 10:03:21;;;;;;;2.63;1.48;;;17.90;68.20;;;;;;4980610;28;99013;-54
2021/08/10 10:06:00;;;;;;;5.35;1.70;;;17.90;68.10;;;;;;4980191;28;97753;-52
2021/08/10 10:08:33;;;;;;;3.63;1.30;;;17.80;68.30;;;;;;4982974;28;96031;-54
2021/08/10 10:11:05;;;;;;;6.13;1.10;;;17.80;68.50;;;;;;4987560;28;95909;-57
2021/08/10 10:13:41;;;;;;;4.38;1.63;;;17.80;68.80;;;;;;4986133;28;97112;-55
2021/08/10 10:16:13;;;;;;;4.80;1.42;;;17.70;68.50;;;;;;4974420;28;98542;-55
2021/08/10 10:18:47;;;;;;;1.42;1.02;;;17.70;68.80;;;;;;4985237;28;95468;-51
2021/08/10 10:21:23;;;;;;;3.83;1.83;;;17.70;68.10;;;;;;4970135;28;95660;-54
2021/08/10 10:23:57;;;;;;;3.17;1.63;;;17.70;68.50;;;;;;4970534;28;96562;-52
2021/08/10 10:26:31;;;;;;;5.97;1.40;;;17.70;69.00;;;;;;4973582;28;95982;-51
2021/08/10 10:29:03;;;;;;;2.92;1.10;;;17.60;69.00;;;;;;4973929;28;95706;-52
2021/08/10 10:31:34;;;;;;;1.45;1.23;;;17.60;69.00;;;;;;4965705;28;95819;-56
2021/08/10 10:34:06;;;;;;;3.75;1.25;;;17.60;68.90;;;;;;4972767;28;95871;-53
2021/08/10 10:36:47;;;;;;;2.03;1.48;;;17.60;68.90;;;;;;4977157;28;95276;-52
2021/08/10 10:39:32;;;;;;;3.30;1.23;;;17.60;68.90;;;;;;5003561;28;95559;-53
2021/08/10 10:42:07;;;;;;;1.90;1.25;;;17.50;68.90;;;;;;4972082;28;95838;-51
2021/08/10 10:44:44;;;;;;;3.45;1.58;;;17.50;68.90;;;;;;4971407;28;95939;-54
2021/08/10 10:47:28;;;;;;;1.92;1.10;;;17.50;68.90;;;;;;4999898;27;99491;-52
2021/08/10 10:49:58;;;;;;;3.60;1.55;;;17.50;68.90;;;;;;4974365;28;95949;-52
2021/08/10 10:52:31;;;;;;;2.47;1.02;;;17.50;69.10;;;;;;4971415;28;95769;-53
2021/08/10 10:55:05;;;;;;;2.45;0.98;;;17.40;69.00;;;;;;4973288;28;97122;-56
2021/08/10 10:57:37;;;;;;;1.27;1.08;;;17.50;69.10;;;;;;4972153;28;95765;-57
2021/08/10 11:00:14;;;;;;;1.60;1.17;;;17.40;69.00;;;;;;4971827;28;95766;-57
2021/08/10 11:03:11;;;;;;;1.70;1.20;;;17.40;69.10;;;;;;4967926;28;95648;-55
2021/08/10 11:05:43;;;;;;;3.05;1.17;;;17.30;69.10;;;;;;4971714;28;95805;-54
2021/08/10 11:08:44;;;;;;;2.97;1.30;;;17.40;69.20;;;;;;4976353;28;95840;-57
2021/08/10 11:11:49;;;;;;;2.45;1.48;;;17.30;69.10;;;;;;4970625;28;95524;-52
2021/08/10 11:14:39;;;;;;;1.63;0.90;;;17.30;69.40;;;;;;5002026;28;95773;-51
2021/08/10 11:17:10;;;;;;;1.23;1.02;;;17.30;69.30;;;;;;4970575;28;95802;-50
2021/08/10 11:19:43;;;;;;;3.25;1.20;;;17.30;69.40;;;;;;4975318;28;95378;-52
2021/08/10 11:22:16;;;;;;;3.10;1.27;;;17.30;69.50;;;;;;4969227;28;95721;-54
2021/08/10 11:24:51;;;;;;;3.65;1.08;;;17.20;69.40;;;;;;4974964;28;95855;-53
2021/08/10 11:27:41;;;;;;;2.35;1.17;;;17.20;69.90;;;;;;4970560;28;96480;-55
2021/08/10 11:30:22;;;;;;;4.43;1.40;;;17.20;69.40;;;;;;4978331;28;95202;-52
2021/08/10 11:32:52;;;;;;;1.65;1.05;;;17.20;69.40;;;;;;4971784;28;95246;-52
2021/08/10 11:35:34;;;;;;;2.05;1.42;;;17.20;69.50;;;;;;4973584;28;95906;-55
2021/08/10 11:38:20;;;;;;;9.35;1.60;;;17.20;69.40;;;;;;4967058;28;95856;-51
2021/08/10 11:40:54;;;;;;;5.18;1.50;;;17.10;69.40;;;;;;4969102;28;95898;-57
2021/08/10 11:43:41;;;;;;;1.13;1.02;;;17.10;69.40;;;;;;4970500;28;95610;-55
2021/08/10 11:46:19;;;;;;;1.63;1.13;;;17.10;69.40;;;;;;4966931;28;95528;-51
2021/08/10 11:49:00;;;;;;;1.25;1.00;;;17.10;69.50;;;;;;4970877;28;96295;-54
2021/08/10 11:51:40;;;;;;;1.88;1.02;;;17.10;69.40;;;;;;4983285;28;95824;-51
2021/08/10 11:54:16;;;;;;;0.90;0.90;;;17.10;69.50;;;;;;4988549;28;95832;-56
2021/08/10 11:56:48;;;;;;;1.20;1.10;;;17.10;69.50;;;;;;4975006;28;96011;-56
2021/08/10 11:59:25;;;;;;;1.13;1.02;;;17.10;69.20;;;;;;4969662;28;96070;-53
2021/08/10 12:01:58;;;;;;;1.35;0.93;;;17.10;69.50;;;;;;4971729;28;96360;-52
2021/08/10 12:04:33;;;;;;;3.55;1.17;;;17.00;69.40;;;;;;4978855;28;95459;-52
2021/08/10 12:07:07;;;;;;;1.10;0.98;;;17.10;69.30;;;;;;4978762;28;95881;-55
2021/08/10 12:09:42;;;;;;;1.10;1.00;;;17.10;69.20;;;;;;4970806;28;96454;-56
2021/08/10 12:12:15;;;;;;;1.02;1.00;;;17.20;69.20;;;;;;4966560;28;96512;-52
2021/08/10 12:14:51;;;;;;;1.45;1.20;;;17.20;69.10;;;;;;4972689;28;98589;-56
2021/08/10 12:17:22;;;;;;;1.38;1.10;;;17.20;69.70;;;;;;4975091;28;95802;-55
2021/08/10 12:19:53;;;;;;;1.02;0.88;;;17.20;69.60;;;;;;4980402;28;96679;-54
2021/08/10 12:22:31;;;;;;;1.33;1.10;;;17.20;69.30;;;;;;4980085;28;95781;-55
2021/08/10 12:25:02;;;;;;;1.00;1.00;;;17.30;69.00;;;;;;4981395;28;95751;-51
2021/08/10 12:27:34;;;;;;;0.90;0.90;;;17.40;68.70;;;;;;4978559;28;95366;-56
2021/08/10 12:30:16;;;;;;;1.10;1.00;;;17.40;68.50;;;;;;4973480;28;95890;-49
2021/08/10 12:32:47;;;;;;;0.90;0.90;;;17.50;68.30;;;;;;4979295;28;101737;-52
2021/08/10 12:35:21;;;;;;;4.80;1.38;;;17.50;68.00;;;;;;4979375;28;95666;-50
2021/08/10 12:37:51;;;;;;;1.27;1.00;;;17.50;67.70;;;;;;4979675;28;95838;-50
2021/08/10 12:40:23;;;;;;;1.02;0.90;;;17.60;67.60;;;;;;4977988;28;98078;-49
2021/08/10 12:42:54;;;;;;;0.90;0.80;;;17.60;67.50;;;;;;4980763;28;95849;-51
2021/08/10 12:45:31;;;;;;;;;;;17.60;67.40;;;;;;4987149;28;95339;-55
2021/08/10 12:48:02;;;;;;;0.85;0.85;;;17.60;67.30;;;;;;4985814;28;95833;-55
2021/08/10 12:50:32;;;;;;;0.90;0.90;;;17.70;67.20;;;;;;4983224;28;96573;-57
2021/08/10 12:53:04;;;;;;;1.05;0.93;;;17.60;67.10;;;;;;4983744;28;97162;-48
2021/08/10 12:55:52;;;;;;;0.98;0.82;;;17.70;67.00;;;;;;4986855;28;95753;-56
2021/08/10 12:58:23;;;;;;;1.20;1.10;;;17.70;67.00;;;;;;4989219;28;95442;-57
2021/08/10 13:00:58;;;;;;;1.48;0.90;;;17.70;67.30;;;;;;4975717;28;95931;-55
2021/08/10 13:03:30;;;;;;;1.27;1.00;;;17.70;67.20;;;;;;4981372;28;96485;-56
2021/08/10 13:06:02;;;;;;;1.00;0.90;;;17.90;67.20;;;;;;4978452;28;95987;-54
2021/08/10 13:08:33;;;;;;;1.17;0.93;;;18.00;67.00;;;;;;4989684;28;95477;-57
2021/08/10 13:11:22;;;;;;;0.70;0.70;;;18.10;67.40;;;;;;4991313;28;95903;-52
2021/08/10 13:14:05;;;;;;;0.80;0.80;;;18.20;66.60;;;;;;4989340;28;97649;-55
2021/08/10 13:16:44;;;;;;;0.77;0.73;;;18.30;66.40;;;;;;4982970;28;95755;-55
2021/08/10 13:19:18;;;;;;;1.35;1.10;;;18.40;66.40;;;;;;4989532;28;95850;-55
2021/08/10 13:21:54;;;;;;;1.17;0.90;;;18.50;66.30;;;;;;4989764;28;95868;-54
2021/08/10 13:24:26;;;;;;;1.42;0.80;;;18.60;66.10;;;;;;4988888;28;96813;-56
2021/08/10 13:26:56;;;;;;;0.50;0.50;;;18.70;66.00;;;;;;4990661;28;95355;-55
2021/08/10 13:29:37;;;;;;;0.77;0.77;;;18.80;65.90;;;;;;4991167;28;96284;-54
2021/08/10 13:32:18;;;;;;;2.75;1.13;;;18.90;65.60;;;;;;4983787;28;96515;-54